createdAt,value
2023-04-08T00:02:09.458Z,8.40
2023-04-08T00:04:57.706Z,5.50
2023-04-08T00:07:45.598Z,7.60
2023-04-08T00:10:34.399Z,7.60
2023-04-08T00:13:22.170Z,7.60
2023-04-08T00:16:10.322Z,7.60
2023-04-08T00:19:00.334Z,7.60
2023-04-08T00:21:47.758Z,7.50
2023-04-08T00:24:35.367Z,7.60
2023-04-08T00:27:25.340Z,7.60
2023-04-08T00:30:13.550Z,7.30
2023-04-08T00:33:01.983Z,7.60
2023-04-08T00:35:51.255Z,7.60
2023-04-08T00:38:38.662Z,7.60
2023-04-08T00:41:26.062Z,7.60
2023-04-08T00:44:13.487Z,7.50
2023-04-08T00:47:01.152Z,7.50
2023-04-08T00:49:49.279Z,7.60
2023-04-08T00:52:39.274Z,7.60
2023-04-08T00:55:26.939Z,7.70
2023-04-08T00:58:15.088Z,7.50
2023-04-08T01:01:05.289Z,7.90
2023-04-08T01:03:57.746Z,7.60
2023-04-08T01:06:58.401Z,7.50
2023-04-08T01:09:54.644Z,7.50
2023-04-08T01:12:45.141Z,7.50
2023-04-08T01:15:33.097Z,7.50
2023-04-08T01:18:21.729Z,7.50
2023-04-08T01:21:09.641Z,8.00
2023-04-08T01:24:03.334Z,7.50
2023-04-08T01:26:52.904Z,7.50
2023-04-08T01:29:40.756Z,7.60
2023-04-08T01:32:30.300Z,7.50
2023-04-08T01:35:17.736Z,7.50
2023-04-08T01:38:06.952Z,7.50
2023-04-08T01:40:54.586Z,7.50
2023-04-08T01:43:44.932Z,7.60
2023-04-08T01:46:33.215Z,7.50
2023-04-08T01:49:21.045Z,8.80
2023-04-08T01:52:10.626Z,7.50
2023-04-08T01:54:58.598Z,7.50
2023-04-08T01:57:49.320Z,7.80
2023-04-08T02:00:39.284Z,7.50
2023-04-08T02:03:27.793Z,7.60
2023-04-08T02:06:15.829Z,7.50
2023-04-08T02:09:05.817Z,7.50
2023-04-08T02:11:53.320Z,7.40
2023-04-08T02:14:41.614Z,7.40
2023-04-08T02:17:35.333Z,7.40
2023-04-08T02:20:25.164Z,7.90
2023-04-08T02:23:16.580Z,7.40
2023-04-08T02:26:04.107Z,7.40
2023-04-08T02:28:52.341Z,7.40
2023-04-08T02:31:43.069Z,7.40
2023-04-08T02:34:32.475Z,7.40
2023-04-08T02:37:20.798Z,7.40
2023-04-08T02:40:25.403Z,7.60
2023-04-08T02:43:13.186Z,7.40
2023-04-08T02:46:03.483Z,7.40
2023-04-08T02:48:52.123Z,7.40
2023-04-08T02:51:42.625Z,7.40
2023-04-08T02:54:30.486Z,7.40
2023-04-08T02:57:19.112Z,7.40
2023-04-08T03:00:07.877Z,7.40
2023-04-08T03:02:55.756Z,7.40
2023-04-08T03:05:44.036Z,7.40
2023-04-08T03:08:33.853Z,7.40
2023-04-08T03:11:21.735Z,7.40
2023-04-08T03:14:09.325Z,7.40
2023-04-08T03:16:57.413Z,7.30
2023-04-08T03:19:45.442Z,7.40
2023-04-08T03:22:33.399Z,9.30
2023-04-08T03:25:26.594Z,7.40
2023-04-08T03:28:14.203Z,7.70
2023-04-08T03:31:02.036Z,7.40
2023-04-08T03:33:50.434Z,7.30
2023-04-08T03:36:37.639Z,7.30
2023-04-08T03:39:25.205Z,7.30
2023-04-08T03:42:14.234Z,7.30
2023-04-08T03:45:02.293Z,7.30
2023-04-08T03:47:50.375Z,7.30
2023-04-08T03:50:38.326Z,7.30
2023-04-08T03:53:28.205Z,7.30
2023-04-08T03:56:18.084Z,7.40
2023-04-08T03:59:06.868Z,8.00
2023-04-08T04:01:54.847Z,7.50
2023-04-08T04:04:42.954Z,7.50
2023-04-08T04:07:32.852Z,7.30
2023-04-08T04:10:20.690Z,7.30
2023-04-08T04:13:08.172Z,7.00
2023-04-08T04:15:58.454Z,7.40
2023-04-08T04:18:46.639Z,7.30
2023-04-08T04:21:34.179Z,7.90
2023-04-08T04:24:22.481Z,7.40
2023-04-08T04:27:09.917Z,7.40
2023-04-08T04:29:57.672Z,7.40
2023-04-08T04:32:46.730Z,8.80
2023-04-08T04:35:34.484Z,7.80
2023-04-08T04:38:22.621Z,7.40
2023-04-08T04:41:10.663Z,7.40
2023-04-08T04:43:58.204Z,6.40
2023-04-08T04:46:46.602Z,7.40
2023-04-08T04:49:36.064Z,6.90
2023-04-08T04:52:23.740Z,7.40
2023-04-08T04:55:18.018Z,7.40
2023-04-08T04:58:05.626Z,8.60
2023-04-08T05:00:54.960Z,6.80
2023-04-08T05:03:42.907Z,7.90
2023-04-08T05:06:32.100Z,7.30
2023-04-08T05:09:19.813Z,7.30
2023-04-08T05:12:07.721Z,7.30
2023-04-08T05:14:58.511Z,7.30
2023-04-08T05:17:46.080Z,7.30
2023-04-08T05:20:33.889Z,7.30
2023-04-08T05:23:23.498Z,7.30
2023-04-08T05:26:10.856Z,7.40
2023-04-08T05:29:00.094Z,7.30
2023-04-08T05:31:48.195Z,7.40
2023-04-08T05:34:36.271Z,7.40
2023-04-08T05:37:23.847Z,7.40
2023-04-08T05:40:14.217Z,7.30
2023-04-08T05:43:02.278Z,7.20
2023-04-08T05:45:52.596Z,6.30
2023-04-08T05:48:40.024Z,7.50
2023-04-08T05:51:27.660Z,7.50
2023-04-08T05:54:15.434Z,7.60
2023-04-08T05:57:04.606Z,8.30
2023-04-08T05:59:53.585Z,7.60
2023-04-08T06:02:41.463Z,7.40
2023-04-08T06:05:29.575Z,7.60
2023-04-08T06:08:17.650Z,7.70
2023-04-08T06:11:06.370Z,7.80
2023-04-08T06:13:55.418Z,7.80
2023-04-08T06:16:42.811Z,7.90
2023-04-08T06:19:30.542Z,8.00
2023-04-08T06:22:18.444Z,8.00
2023-04-08T06:25:07.255Z,8.10
2023-04-08T06:27:54.812Z,8.20
2023-04-08T06:30:44.415Z,8.20
2023-04-08T06:33:32.674Z,8.30
2023-04-08T06:36:20.704Z,9.00
2023-04-08T06:39:08.186Z,8.40
2023-04-08T06:41:56.236Z,8.30
2023-04-08T06:44:56.810Z,8.30
2023-04-08T06:47:45.591Z,8.30
2023-04-08T06:50:33.307Z,8.70
2023-04-08T06:53:21.399Z,8.30
2023-04-08T06:56:09.573Z,8.40
2023-04-08T06:58:57.177Z,8.50
2023-04-08T07:01:45.174Z,8.50
2023-04-08T07:04:34.664Z,8.50
2023-04-08T07:07:24.527Z,8.70
2023-04-08T07:10:14.222Z,8.70
2023-04-08T07:13:01.988Z,8.70
2023-04-08T07:15:49.638Z,8.70
2023-04-08T07:18:38.125Z,8.90
2023-04-08T07:21:27.224Z,8.90
2023-04-08T07:24:16.126Z,9.80
2023-04-08T07:27:03.668Z,8.90
2023-04-08T07:29:53.846Z,8.90
2023-04-08T07:32:44.291Z,9.00
2023-04-08T07:35:32.163Z,9.00
2023-04-08T07:38:21.404Z,9.10
2023-04-08T07:41:09.958Z,9.00
2023-04-08T07:43:58.073Z,9.10
2023-04-08T07:46:49.507Z,8.90
2023-04-08T07:49:39.438Z,8.90
2023-04-08T07:52:26.740Z,8.90
2023-04-08T07:55:15.836Z,9.10
2023-04-08T07:58:03.432Z,9.20
2023-04-08T08:00:51.570Z,9.40
2023-04-08T08:03:40.315Z,9.30
2023-04-08T08:06:29.278Z,9.40
2023-04-08T08:09:16.994Z,9.50
2023-04-08T08:12:05.967Z,9.50
2023-04-08T08:14:54.992Z,9.60
2023-04-08T08:17:42.687Z,9.70
2023-04-08T08:20:30.142Z,9.90
2023-04-08T08:23:18.299Z,10.10
2023-04-08T08:26:07.751Z,10.00
2023-04-08T08:28:57.267Z,9.90
2023-04-08T08:31:44.525Z,10.30
2023-04-08T08:34:31.885Z,10.40
2023-04-08T08:37:19.657Z,10.80
2023-04-08T08:40:08.124Z,10.40
2023-04-08T08:42:59.257Z,10.50
2023-04-08T08:45:48.332Z,10.70
2023-04-08T08:48:38.764Z,10.70
2023-04-08T08:51:29.229Z,10.40
2023-04-08T08:54:17.035Z,10.70
2023-04-08T08:57:05.113Z,10.70
2023-04-08T08:59:52.552Z,10.90
2023-04-08T09:02:41.725Z,11.00
2023-04-08T09:05:29.968Z,11.10
2023-04-08T09:08:27.867Z,11.30
2023-04-08T09:11:17.071Z,11.40
2023-04-08T09:14:04.500Z,11.10
2023-04-08T09:16:52.394Z,11.00
2023-04-08T09:19:41.565Z,10.70
2023-04-08T09:22:28.918Z,10.60
2023-04-08T09:25:24.343Z,11.00
2023-04-08T09:28:20.540Z,10.40
2023-04-08T09:31:19.851Z,10.40
2023-04-08T09:34:11.347Z,10.80
2023-04-08T09:36:59.868Z,11.10
2023-04-08T09:39:47.274Z,11.40
2023-04-08T09:42:35.913Z,11.60
2023-04-08T09:45:23.241Z,12.10
2023-04-08T09:48:15.764Z,12.00
2023-04-08T09:51:04.605Z,12.20
2023-04-08T09:53:57.816Z,12.70
2023-04-08T09:56:49.704Z,12.80
2023-04-08T09:59:38.877Z,13.00
2023-04-08T10:02:31.291Z,12.80
2023-04-08T10:05:19.841Z,12.30
2023-04-08T10:08:08.525Z,12.10
2023-04-08T10:10:58.796Z,11.90
2023-04-08T10:13:46.743Z,11.90
2023-04-08T10:16:34.030Z,12.50
2023-04-08T10:19:42.127Z,11.50
2023-04-08T10:22:49.824Z,11.60
2023-04-08T10:25:38.577Z,10.30
2023-04-08T10:28:27.772Z,12.00
2023-04-08T10:31:23.317Z,12.00
2023-04-08T10:34:17.263Z,12.50
2023-04-08T10:37:05.203Z,12.30
2023-04-08T10:39:56.642Z,12.70
2023-04-08T10:42:43.985Z,11.80
2023-04-08T10:45:33.857Z,12.20
2023-04-08T10:48:22.682Z,12.60
2023-04-08T10:51:11.023Z,12.60
2023-04-08T10:54:07.374Z,12.70
2023-04-08T10:56:55.347Z,12.50
2023-04-08T10:59:43.276Z,13.20
2023-04-08T11:02:35.209Z,13.50
2023-04-08T11:05:24.124Z,12.60
2023-04-08T11:08:12.464Z,12.80
2023-04-08T11:11:01.714Z,13.10
2023-04-08T11:13:53.231Z,13.30
2023-04-08T11:16:41.673Z,13.40
2023-04-08T11:19:30.944Z,13.80
2023-04-08T11:22:19.241Z,13.70
2023-04-08T11:25:08.617Z,13.90
2023-04-08T11:27:56.822Z,13.80
2023-04-08T11:30:44.999Z,13.90
2023-04-08T11:33:33.809Z,14.50
2023-04-08T11:36:22.956Z,14.20
2023-04-08T11:39:12.437Z,14.20
2023-04-08T11:42:00.746Z,14.20
2023-04-08T11:44:48.703Z,13.60
2023-04-08T11:47:36.759Z,13.20
2023-04-08T11:50:25.754Z,12.90
2023-04-08T11:53:20.936Z,12.90
2023-04-08T11:56:18.617Z,12.90
2023-04-08T11:59:06.195Z,12.60
2023-04-08T12:01:54.692Z,12.80
2023-04-08T12:04:42.366Z,14.10
2023-04-08T12:07:30.274Z,12.60
2023-04-08T12:10:20.117Z,12.80
2023-04-08T12:13:07.730Z,12.80
2023-04-08T12:15:56.545Z,12.90
2023-04-08T12:18:44.191Z,13.60
2023-04-08T12:21:34.140Z,14.20
2023-04-08T12:24:24.331Z,13.90
2023-04-08T12:27:14.052Z,13.40
2023-04-08T12:30:01.711Z,13.60
2023-04-08T12:32:49.472Z,13.80
2023-04-08T12:35:37.181Z,13.80
2023-04-08T12:38:25.528Z,13.70
2023-04-08T12:41:13.353Z,14.20
2023-04-08T12:44:02.338Z,15.40
2023-04-08T12:46:50.617Z,15.20
2023-04-08T12:52:29.442Z,15.20
2023-04-08T12:55:18.450Z,15.90
2023-04-08T12:58:06.936Z,16.70
2023-04-08T13:00:56.494Z,16.80
2023-04-08T13:03:46.360Z,16.90
2023-04-08T13:06:34.884Z,16.50
2023-04-08T13:09:23.070Z,16.40
2023-04-08T13:12:12.280Z,16.50
2023-04-08T13:15:01.481Z,15.60
2023-04-08T13:17:50.134Z,16.40
2023-04-08T13:20:37.562Z,14.70
2023-04-08T13:23:26.126Z,14.10
2023-04-08T13:26:14.687Z,13.60
2023-04-08T13:29:02.550Z,13.40
2023-04-08T13:31:51.562Z,13.20
2023-04-08T13:34:40.916Z,13.10
2023-04-08T13:37:29.126Z,13.00
2023-04-08T13:40:17.997Z,13.40
2023-04-08T13:43:05.799Z,15.90
2023-04-08T13:45:53.610Z,14.90
2023-04-08T13:48:41.586Z,15.40
2023-04-08T13:51:31.634Z,16.20
2023-04-08T13:54:19.688Z,16.90
2023-04-08T13:57:07.650Z,17.30
2023-04-08T13:59:55.588Z,18.10
2023-04-08T14:02:44.340Z,18.30
2023-04-08T14:05:31.954Z,18.90
2023-04-08T14:08:25.395Z,18.20
2023-04-08T14:11:13.209Z,17.70
2023-04-08T14:14:01.198Z,16.10
2023-04-08T14:16:49.792Z,16.60
2023-04-08T14:19:37.026Z,14.60
2023-04-08T14:22:25.168Z,14.10
2023-04-08T14:25:14.377Z,13.80
2023-04-08T14:28:01.786Z,13.90
2023-04-08T14:30:49.458Z,13.90
2023-04-08T14:33:38.086Z,14.30
2023-04-08T14:36:26.097Z,14.00
2023-04-08T14:39:14.502Z,14.50
2023-04-08T14:42:03.778Z,15.20
2023-04-08T14:44:51.840Z,15.20
2023-04-08T14:47:41.184Z,15.30
2023-04-08T14:50:28.798Z,15.50
2023-04-08T14:53:17.033Z,15.10
2023-04-08T14:56:05.518Z,15.00
2023-04-08T14:58:54.472Z,15.30
2023-04-08T15:01:42.669Z,15.60
2023-04-08T15:04:30.492Z,15.10
2023-04-08T15:07:17.749Z,15.30
2023-04-08T15:10:05.434Z,15.70
2023-04-08T15:12:53.234Z,16.40
2023-04-08T15:15:42.036Z,16.00
2023-04-08T15:18:29.255Z,14.90
2023-04-08T15:21:16.916Z,15.80
2023-04-08T15:24:04.792Z,15.80
2023-04-08T15:26:52.325Z,15.20
2023-04-08T15:29:39.869Z,14.80
2023-04-08T15:32:28.827Z,14.70
2023-04-08T15:35:16.448Z,14.50
2023-04-08T15:38:04.669Z,14.50
2023-04-08T15:40:52.740Z,14.60
2023-04-08T15:43:40.109Z,14.60
2023-04-08T15:46:27.873Z,14.70
2023-04-08T15:49:17.659Z,14.60
2023-04-08T15:52:05.172Z,14.60
2023-04-08T15:54:52.921Z,15.20
2023-04-08T15:57:42.514Z,15.50
2023-04-08T16:00:30.530Z,15.80
2023-04-08T16:03:18.140Z,16.00
2023-04-08T16:06:07.562Z,15.70
2023-04-08T16:08:55.363Z,15.40
2023-04-08T16:11:43.624Z,15.00
2023-04-08T16:14:31.809Z,14.70
2023-04-08T16:17:19.131Z,17.40
2023-04-08T16:20:07.551Z,14.60
2023-04-08T16:22:58.302Z,14.20
2023-04-08T16:25:46.037Z,14.20
2023-04-08T16:28:33.930Z,13.90
2023-04-08T16:31:23.472Z,13.90
2023-04-08T16:34:11.404Z,13.90
2023-04-08T16:36:58.635Z,14.00
2023-04-08T16:39:48.140Z,14.20
2023-04-08T16:42:35.642Z,14.50
2023-04-08T16:45:23.231Z,14.90
2023-04-08T16:48:12.638Z,15.30
2023-04-08T16:51:00.174Z,15.50
2023-04-08T16:53:48.147Z,15.30
2023-04-08T16:56:37.104Z,15.10
2023-04-08T16:59:24.833Z,15.00
2023-04-08T17:02:13.052Z,14.70
2023-04-08T17:05:01.230Z,14.50
2023-04-08T17:07:48.900Z,14.30
2023-04-08T17:10:36.398Z,14.10
2023-04-08T17:13:25.795Z,14.10
2023-04-08T17:16:13.752Z,13.90
2023-04-08T17:19:01.328Z,13.80
2023-04-08T17:21:48.797Z,13.70
2023-04-08T17:24:36.266Z,13.90
2023-04-08T17:27:24.469Z,13.70
2023-04-08T17:30:14.496Z,13.50
2023-04-08T17:33:03.167Z,13.30
2023-04-08T17:35:53.110Z,13.20
2023-04-08T17:38:41.279Z,13.00
2023-04-08T17:41:39.018Z,13.00
2023-04-08T17:44:30.123Z,12.70
2023-04-08T17:47:18.814Z,12.80
2023-04-08T17:50:06.770Z,14.40
2023-04-08T17:52:54.968Z,12.80
2023-04-08T17:55:43.174Z,12.40
2023-04-08T17:58:31.450Z,12.70
2023-04-08T18:01:19.429Z,12.60
2023-04-08T18:04:10.575Z,12.40
2023-04-08T18:06:58.868Z,12.60
2023-04-08T18:09:49.034Z,12.20
2023-04-08T18:12:37.201Z,12.00
2023-04-08T18:15:25.127Z,11.90
2023-04-08T18:18:19.392Z,11.80
2023-04-08T18:21:08.137Z,11.70
2023-04-08T18:23:56.015Z,11.50
2023-04-08T18:27:04.816Z,11.40
2023-04-08T18:29:53.571Z,11.30
2023-04-08T18:32:42.148Z,11.40
2023-04-08T18:35:30.669Z,11.10
2023-04-08T18:38:19.546Z,10.90
2023-04-08T18:41:07.722Z,10.90
2023-04-08T18:43:56.513Z,10.80
2023-04-08T18:46:45.862Z,10.70
2023-04-08T18:49:34.163Z,11.90
2023-04-08T18:52:24.946Z,10.90
2023-04-08T18:55:15.050Z,10.90
2023-04-08T18:58:03.603Z,11.90
2023-04-08T19:00:51.159Z,10.90
2023-04-08T19:03:41.066Z,10.90
2023-04-08T19:06:28.689Z,8.80
2023-04-08T19:09:16.657Z,10.40
2023-04-08T19:12:05.966Z,10.30
2023-04-08T19:14:53.627Z,12.60
2023-04-08T19:17:43.955Z,10.60
2023-04-08T19:20:35.477Z,10.30
2023-04-08T19:23:23.840Z,10.60
2023-04-08T19:26:11.963Z,10.30
2023-04-08T19:29:01.399Z,10.00
2023-04-08T19:31:49.429Z,8.30
2023-04-08T19:34:40.042Z,9.60
2023-04-08T19:37:27.317Z,9.30
2023-04-08T19:40:14.933Z,9.10
2023-04-08T19:43:03.021Z,9.00
2023-04-08T19:45:55.479Z,8.90
2023-04-08T19:48:43.291Z,8.80
2023-04-08T19:51:31.570Z,8.90
2023-04-08T19:54:19.589Z,9.00
2023-04-08T19:57:08.962Z,8.90
2023-04-08T19:59:58.998Z,9.40
2023-04-08T20:02:48.359Z,8.80
2023-04-08T20:05:36.877Z,8.70
2023-04-08T20:08:25.025Z,8.60
2023-04-08T20:11:13.242Z,8.50
2023-04-08T20:14:00.583Z,8.40
2023-04-08T20:16:48.635Z,8.40
2023-04-08T20:19:41.490Z,9.50
2023-04-08T20:22:29.088Z,8.50
2023-04-08T20:25:17.437Z,10.50
2023-04-08T20:28:05.066Z,8.30
2023-04-08T20:30:54.108Z,8.20
2023-04-08T20:33:44.230Z,8.00
2023-04-08T20:36:34.525Z,8.00
2023-04-08T20:39:29.305Z,7.90
2023-04-08T20:42:17.551Z,7.90
2023-04-08T20:45:06.827Z,8.20
2023-04-08T20:47:54.389Z,8.30
2023-04-08T20:50:42.698Z,8.30
2023-04-08T20:53:32.222Z,8.10
2023-04-08T20:56:21.196Z,8.00
2023-04-08T20:59:09.431Z,7.90
2023-04-08T21:01:57.757Z,7.80
2023-04-08T21:04:46.256Z,8.00
2023-04-08T21:07:36.512Z,7.60
2023-04-08T21:10:25.728Z,7.50
2023-04-08T21:13:13.390Z,7.50
2023-04-08T21:16:01.666Z,7.50
2023-04-08T21:18:50.191Z,8.60
2023-04-08T21:21:38.102Z,7.40
2023-04-08T21:24:27.416Z,7.30
2023-04-08T21:27:16.245Z,7.20
2023-04-08T21:30:05.012Z,7.20
2023-04-08T21:32:53.715Z,7.10
2023-04-08T21:35:41.880Z,7.10
2023-04-08T21:38:32.270Z,7.00
2023-04-08T21:41:20.104Z,7.00
2023-04-08T21:44:13.004Z,8.40
2023-04-08T21:47:01.821Z,6.90
2023-04-08T21:49:50.116Z,8.40
2023-04-08T21:52:38.137Z,6.90
2023-04-08T21:55:25.912Z,6.50
2023-04-08T21:58:17.279Z,6.80
2023-04-08T22:01:06.777Z,6.90
2023-04-08T22:03:55.619Z,6.80
2023-04-08T22:06:43.824Z,6.50
2023-04-08T22:09:31.770Z,6.70
2023-04-08T22:12:20.097Z,6.90
2023-04-08T22:15:08.506Z,6.60
2023-04-08T22:17:57.585Z,6.50
2023-04-08T22:20:45.104Z,6.50
2023-04-08T22:23:32.504Z,6.50
2023-04-08T22:26:21.532Z,5.20
2023-04-08T22:29:08.898Z,6.20
2023-04-08T22:31:56.436Z,6.20
2023-04-08T22:34:45.627Z,6.20
2023-04-08T22:37:33.690Z,6.60
2023-04-08T22:40:21.495Z,6.20
2023-04-08T22:43:09.217Z,6.10
2023-04-08T22:45:56.942Z,6.20
2023-04-08T22:48:45.275Z,6.10
2023-04-08T22:51:35.292Z,6.10
2023-04-08T22:54:23.557Z,6.10
2023-04-08T22:57:11.545Z,6.00
2023-04-08T22:59:59.050Z,6.00
2023-04-08T23:02:47.015Z,6.20
2023-04-08T23:05:35.120Z,5.90
2023-04-08T23:08:24.217Z,6.90
2023-04-08T23:11:11.555Z,5.80
2023-04-08T23:14:01.966Z,5.90
2023-04-08T23:16:49.897Z,6.00
2023-04-08T23:19:37.496Z,7.60
2023-04-08T23:22:25.088Z,5.80
2023-04-08T23:25:14.929Z,5.90
2023-04-08T23:28:03.030Z,5.10
2023-04-08T23:30:51.254Z,5.60
2023-04-08T23:33:39.003Z,5.60
2023-04-08T23:36:27.739Z,5.90
2023-04-08T23:39:15.713Z,5.50
2023-04-08T23:42:05.219Z,5.50
2023-04-08T23:44:52.970Z,5.50
2023-04-08T23:47:41.500Z,6.00
2023-04-08T23:50:29.333Z,5.40
2023-04-08T23:53:16.954Z,5.30
2023-04-08T23:56:05.688Z,5.60
2023-04-08T23:58:56.931Z,4.90
